createdAt,value
2023-04-02T00:01:01.625Z,97360.34
2023-04-02T00:03:42.544Z,97354.41
2023-04-02T00:06:34.215Z,97361.31
2023-04-02T00:09:21.314Z,97364.78
2023-04-02T00:11:54.952Z,97361.63
2023-04-02T00:14:36.616Z,97367.56
2023-04-02T00:17:06.480Z,97367.50
2023-04-02T00:19:49.941Z,97369.75
2023-04-02T00:22:20.024Z,97369.88
2023-04-02T00:24:49.883Z,97370.16
2023-04-02T00:27:19.907Z,97370.81
2023-04-02T00:29:58.477Z,97375.72
2023-04-02T00:32:33.189Z,97376.31
2023-04-02T00:35:00.983Z,97379.03
2023-04-02T00:37:38.894Z,97375.59
2023-04-02T00:40:16.883Z,97378.03
2023-04-02T00:42:44.918Z,97378.81
2023-04-02T00:45:23.673Z,97380.63
2023-04-02T00:47:51.103Z,97378.94
2023-04-02T00:50:20.667Z,97378.88
2023-04-02T00:52:51.013Z,97383.25
2023-04-02T00:55:25.002Z,97382.59
2023-04-02T00:57:52.469Z,97380.03
2023-04-02T01:00:32.281Z,97378.25
2023-04-02T01:03:20.309Z,97382.66
2023-04-02T01:05:50.660Z,97387.94
2023-04-02T01:08:31.841Z,97387.22
2023-04-02T01:11:29.171Z,97390.75
2023-04-02T01:14:07.932Z,97392.44
2023-04-02T01:16:42.354Z,97391.63
2023-04-02T01:19:45.712Z,97398.31
2023-04-02T01:22:21.902Z,97391.50
2023-04-02T01:24:49.118Z,97391.59
2023-04-02T01:27:28.783Z,97392.59
2023-04-02T01:29:58.429Z,97394.19
2023-04-02T01:32:30.151Z,97392.47
2023-04-02T01:34:58.392Z,97394.84
2023-04-02T01:37:57.201Z,97405.34
2023-04-02T01:40:31.394Z,97408.78
2023-04-02T01:43:09.872Z,97405.34
2023-04-02T01:45:36.910Z,97407.09
2023-04-02T01:48:17.071Z,97410.53
2023-04-02T01:50:45.486Z,97407.09
2023-04-02T01:53:17.170Z,97410.59
2023-04-02T01:55:47.010Z,97402.84
2023-04-02T01:58:17.297Z,97408.78
2023-04-02T02:00:49.911Z,97403.53
2023-04-02T02:03:20.843Z,97405.16
2023-04-02T02:05:47.654Z,97402.34
2023-04-02T02:08:32.626Z,97413.38
2023-04-02T02:10:59.691Z,97409.88
2023-04-02T02:13:26.410Z,97407.13
2023-04-02T02:15:56.809Z,97412.25
2023-04-02T02:18:23.962Z,97413.91
2023-04-02T02:20:52.687Z,97409.53
2023-04-02T02:23:21.392Z,97413.91
2023-04-02T02:25:50.876Z,97415.69
2023-04-02T02:28:27.293Z,97419.19
2023-04-02T02:31:01.574Z,97416.69
2023-04-02T02:33:34.839Z,97425.47
2023-04-02T02:36:10.559Z,97413.06
2023-04-02T02:38:43.578Z,97410.47
2023-04-02T02:41:29.259Z,97415.84
2023-04-02T02:44:07.491Z,97415.06
2023-04-02T02:46:37.875Z,97429.75
2023-04-02T02:49:06.205Z,97432.44
2023-04-02T02:51:58.872Z,97429.09
2023-04-02T02:54:27.358Z,97442.09
2023-04-02T02:56:59.818Z,97436.94
2023-04-02T02:59:29.697Z,97436.09
2023-04-02T03:01:57.294Z,97439.56
2023-04-02T03:04:25.165Z,97435.16
2023-04-02T03:06:53.301Z,97440.19
2023-04-02T03:09:33.938Z,97441.91
2023-04-02T03:12:35.131Z,97441.03
2023-04-02T03:15:37.383Z,97453.06
2023-04-02T03:18:40.225Z,97451.38
2023-04-02T03:21:25.410Z,97449.69
2023-04-02T03:23:57.648Z,97452.16
2023-04-02T03:26:39.887Z,97451.16
2023-04-02T03:29:17.916Z,97461.25
2023-04-02T03:31:48.713Z,97462.97
2023-04-02T03:34:29.801Z,97462.03
2023-04-02T03:37:08.130Z,97465.38
2023-04-02T03:39:46.463Z,97472.19
2023-04-02T03:42:21.673Z,97473.19
2023-04-02T03:45:03.287Z,97475.78
2023-04-02T03:47:36.459Z,97470.63
2023-04-02T03:50:31.894Z,97468.88
2023-04-02T03:53:00.383Z,97471.38
2023-04-02T03:55:33.953Z,97467.19
2023-04-02T03:58:27.149Z,97469.78
2023-04-02T04:01:09.127Z,97472.13
2023-04-02T04:03:49.811Z,97473.06
2023-04-02T04:06:32.946Z,97472.25
2023-04-02T04:09:15.672Z,97478.22
2023-04-02T04:11:49.763Z,97477.28
2023-04-02T04:14:35.274Z,97477.34
2023-04-02T04:17:15.630Z,97480.91
2023-04-02T04:19:45.533Z,97484.22
2023-04-02T04:22:30.091Z,97474.78
2023-04-02T04:25:05.938Z,97484.34
2023-04-02T04:27:52.906Z,97495.28
2023-04-02T04:30:34.971Z,97496.78
2023-04-02T04:33:11.786Z,97495.94
2023-04-02T04:38:27.590Z,97506.16
2023-04-02T04:40:59.571Z,97502.66
2023-04-02T04:43:46.438Z,97511.31
2023-04-02T04:46:18.478Z,97510.28
2023-04-02T04:49:03.190Z,97510.16
2023-04-02T04:51:45.300Z,97515.97
2023-04-02T04:54:16.377Z,97518.00
2023-04-02T04:56:55.486Z,97517.41
2023-04-02T04:59:52.719Z,97515.78
2023-04-02T05:02:38.434Z,97512.56
2023-04-02T05:05:18.814Z,97513.31
2023-04-02T05:07:51.183Z,97515.00
2023-04-02T05:10:41.552Z,97517.53
2023-04-02T05:13:20.788Z,97515.63
2023-04-02T05:16:12.368Z,97518.97
2023-04-02T05:19:01.843Z,97523.16
2023-04-02T05:22:24.342Z,97528.91
2023-04-02T05:24:59.544Z,97520.25
2023-04-02T05:27:41.983Z,97524.47
2023-04-02T05:30:20.150Z,97534.66
2023-04-02T05:32:53.681Z,97543.06
2023-04-02T05:35:24.988Z,97537.78
2023-04-02T05:37:52.456Z,97548.00
2023-04-02T05:40:29.709Z,97547.03
2023-04-02T05:42:58.538Z,97548.00
2023-04-02T05:45:31.531Z,97551.19
2023-04-02T05:48:02.198Z,97551.94
2023-04-02T05:50:37.570Z,97560.53
2023-04-02T05:53:17.901Z,97559.25
2023-04-02T05:56:08.013Z,97552.00
2023-04-02T05:58:55.809Z,97565.75
2023-04-02T06:01:33.043Z,97562.97
2023-04-02T06:04:19.098Z,97557.09
2023-04-02T06:06:51.708Z,97569.91
2023-04-02T06:09:37.938Z,97567.31
2023-04-02T06:12:32.210Z,97561.69
2023-04-02T06:14:59.081Z,97566.78
2023-04-02T06:17:27.407Z,97573.44
2023-04-02T06:19:56.308Z,97580.41
2023-04-02T06:22:25.265Z,97572.09
2023-04-02T06:25:00.103Z,97581.31
2023-04-02T06:27:26.746Z,97584.44
2023-04-02T06:29:59.911Z,97579.59
2023-04-02T06:32:27.331Z,97580.97
2023-04-02T06:34:54.447Z,97586.75
2023-04-02T06:37:35.880Z,97594.78
2023-04-02T06:40:05.755Z,97598.59
2023-04-02T06:42:39.515Z,97608.50
2023-04-02T06:45:14.484Z,97611.53
2023-04-02T06:47:48.747Z,97611.06
2023-04-02T06:50:31.019Z,97613.66
2023-04-02T06:53:06.461Z,97612.75
2023-04-02T06:55:55.211Z,97616.63
2023-04-02T06:58:21.909Z,97617.84
2023-04-02T07:00:50.754Z,97621.75
2023-04-02T07:03:23.729Z,97623.31
2023-04-02T07:05:50.524Z,97623.81
2023-04-02T07:08:17.129Z,97625.38
2023-04-02T07:10:44.029Z,97623.09
2023-04-02T07:13:19.576Z,97624.84
2023-04-02T07:15:49.198Z,97635.66
2023-04-02T07:18:31.093Z,97632.50
2023-04-02T07:20:58.179Z,97633.50
2023-04-02T07:23:25.526Z,97634.75
2023-04-02T07:25:54.977Z,97635.56
2023-04-02T07:28:22.906Z,97638.63
2023-04-02T07:30:50.993Z,97640.91
2023-04-02T07:33:20.598Z,97642.50
2023-04-02T07:35:47.915Z,97645.78
2023-04-02T07:38:14.674Z,97642.75
2023-04-02T07:40:41.458Z,97646.72
2023-04-02T07:43:08.218Z,97646.66
2023-04-02T07:45:35.029Z,97645.03
2023-04-02T07:48:10.517Z,97648.69
2023-04-02T07:50:37.308Z,97652.19
2023-04-02T07:53:04.456Z,97655.56
2023-04-02T07:55:31.398Z,97658.63
2023-04-02T07:57:59.798Z,97660.00
2023-04-02T08:00:28.444Z,97660.00
2023-04-02T08:02:55.249Z,97658.78
2023-04-02T08:05:22.620Z,97661.59
2023-04-02T08:07:54.581Z,97662.72
2023-04-02T08:10:21.460Z,97663.13
2023-04-02T08:12:48.554Z,97659.47
2023-04-02T08:15:19.173Z,97665.09
2023-04-02T08:17:46.629Z,97666.72
2023-04-02T08:20:18.830Z,97669.50
2023-04-02T08:22:46.842Z,97672.75
2023-04-02T08:25:14.101Z,97672.28
2023-04-02T08:27:41.157Z,97670.44
2023-04-02T08:30:09.795Z,97672.09
2023-04-02T08:32:36.604Z,97681.91
2023-04-02T08:35:03.384Z,97686.03
2023-04-02T08:37:29.971Z,97682.91
2023-04-02T08:39:56.597Z,97690.44
2023-04-02T08:42:43.156Z,97689.53
2023-04-02T08:45:47.517Z,97688.69
2023-04-02T08:48:15.682Z,97694.88
2023-04-02T08:50:44.585Z,97693.53
2023-04-02T08:53:16.843Z,97680.88
2023-04-02T08:56:06.250Z,97707.31
2023-04-02T08:58:43.153Z,97714.22
2023-04-02T09:01:54.255Z,97717.91
2023-04-02T09:04:25.699Z,97725.84
2023-04-02T09:06:55.104Z,97729.97
2023-04-02T09:09:27.379Z,97735.16
2023-04-02T09:12:04.158Z,97739.59
2023-04-02T09:14:44.754Z,97742.78
2023-04-02T09:17:21.874Z,97743.97
2023-04-02T09:19:59.026Z,97746.31
2023-04-02T09:22:31.856Z,97737.06
2023-04-02T09:25:01.685Z,97756.56
2023-04-02T09:27:31.513Z,97754.03
2023-04-02T09:30:15.099Z,97758.31
2023-04-02T09:32:52.935Z,97766.28
2023-04-02T09:35:27.074Z,97766.78
2023-04-02T09:38:30.760Z,97776.16
2023-04-02T09:41:03.790Z,97773.63
2023-04-02T09:43:31.928Z,97776.63
2023-04-02T09:46:02.603Z,97781.72
2023-04-02T09:48:40.938Z,97790.03
2023-04-02T09:51:21.512Z,97785.50
2023-04-02T09:54:04.524Z,97799.09
2023-04-02T09:56:36.739Z,97797.44
2023-04-02T09:59:03.432Z,97795.84
2023-04-02T10:01:33.841Z,97800.34
2023-04-02T10:04:03.819Z,97800.25
2023-04-02T10:06:32.863Z,97803.38
2023-04-02T10:09:21.426Z,97801.50
2023-04-02T10:11:49.930Z,97806.91
2023-04-02T10:14:28.765Z,97808.38
2023-04-02T10:17:01.478Z,97817.97
2023-04-02T10:19:42.532Z,97822.09
2023-04-02T10:22:18.018Z,97821.50
2023-04-02T10:24:44.720Z,97822.78
2023-04-02T10:27:22.587Z,97817.44
2023-04-02T10:30:22.988Z,97829.25
2023-04-02T10:33:00.378Z,97835.06
2023-04-02T10:35:42.046Z,97834.28
2023-04-02T10:38:34.154Z,97836.19
2023-04-02T10:41:13.099Z,97831.84
2023-04-02T10:44:06.122Z,97837.50
2023-04-02T10:46:54.537Z,97842.53
2023-04-02T10:49:33.011Z,97858.00
2023-04-02T10:52:24.279Z,97847.34
2023-04-02T10:54:57.329Z,97866.34
2023-04-02T10:57:40.709Z,97865.66
2023-04-02T11:00:18.560Z,97868.94
2023-04-02T11:02:54.622Z,97870.75
2023-04-02T11:05:31.645Z,97876.09
2023-04-02T11:08:04.327Z,97882.75
2023-04-02T11:10:34.888Z,97892.19
2023-04-02T11:13:32.731Z,97883.09
2023-04-02T11:15:59.542Z,97888.13
2023-04-02T11:18:36.779Z,97888.13
2023-04-02T11:21:25.079Z,97893.88
2023-04-02T11:23:59.990Z,97892.34
2023-04-02T11:26:34.940Z,97897.38
2023-04-02T11:29:08.302Z,97898.66
2023-04-02T11:31:35.290Z,97910.38
2023-04-02T11:34:01.891Z,97912.69
2023-04-02T11:36:50.512Z,97900.09
2023-04-02T11:39:56.818Z,97912.47
2023-04-02T11:42:29.785Z,97909.25
2023-04-02T11:45:01.429Z,97899.50
2023-04-02T11:47:30.084Z,97907.47
2023-04-02T11:49:58.857Z,97900.63
2023-04-02T11:52:29.135Z,97906.50
2023-04-02T11:54:58.912Z,97905.66
2023-04-02T11:57:41.138Z,97915.06
2023-04-02T12:00:27.384Z,97906.78
2023-04-02T12:03:04.708Z,97913.56
2023-04-02T12:05:50.969Z,97908.97
2023-04-02T12:09:04.983Z,97904.50
2023-04-02T12:11:37.869Z,97924.28
2023-04-02T12:14:36.550Z,97916.81
2023-04-02T12:17:07.755Z,97908.22
2023-04-02T12:19:36.066Z,97907.59
2023-04-02T12:22:02.938Z,97910.25
2023-04-02T12:24:33.736Z,97903.09
2023-04-02T12:27:20.052Z,97913.94
2023-04-02T12:29:47.183Z,97904.94
2023-04-02T12:32:30.845Z,97912.22
2023-04-02T12:35:04.746Z,97921.69
2023-04-02T12:37:31.713Z,97924.22
2023-04-02T12:40:01.649Z,97906.16
2023-04-02T12:42:38.008Z,97921.63
2023-04-02T12:45:07.030Z,97938.06
2023-04-02T12:47:33.842Z,97923.59
2023-04-02T12:50:02.199Z,97917.22
2023-04-02T12:52:29.405Z,97925.84
2023-04-02T12:55:02.596Z,97927.44
2023-04-02T12:57:29.258Z,97927.19
2023-04-02T13:00:01.320Z,97946.59
2023-04-02T13:02:31.021Z,97947.94
2023-04-02T13:05:02.404Z,97928.69
2023-04-02T13:07:32.319Z,97940.53
2023-04-02T13:10:01.683Z,97941.97
2023-04-02T13:12:36.576Z,97942.84
2023-04-02T13:15:05.935Z,97947.81
2023-04-02T13:17:43.846Z,97952.63
2023-04-02T13:20:35.663Z,97949.75
2023-04-02T13:23:27.624Z,97956.56
2023-04-02T13:25:56.025Z,97953.56
2023-04-02T13:28:22.925Z,97959.22
2023-04-02T13:30:49.805Z,97973.13
2023-04-02T13:33:20.313Z,97973.66
2023-04-02T13:35:48.441Z,97970.81
2023-04-02T13:38:15.161Z,97979.22
2023-04-02T13:40:42.006Z,97982.59
2023-04-02T13:43:19.691Z,97990.09
2023-04-02T13:45:50.680Z,98002.72
2023-04-02T13:48:21.457Z,97994.09
2023-04-02T13:50:48.206Z,97994.50
2023-04-02T13:53:31.199Z,98002.78
2023-04-02T13:56:00.425Z,98002.66
2023-04-02T13:58:31.749Z,98011.56
2023-04-02T14:01:01.917Z,98015.13
2023-04-02T14:03:28.705Z,98016.72
2023-04-02T14:06:08.939Z,98030.50
2023-04-02T14:08:47.918Z,98025.06
2023-04-02T14:11:36.838Z,98039.19
2023-04-02T14:14:45.704Z,98042.75
2023-04-02T14:17:36.985Z,98039.75
2023-04-02T14:20:23.091Z,98048.16
2023-04-02T14:22:57.569Z,98052.91
2023-04-02T14:25:30.242Z,98046.84
2023-04-02T14:28:37.891Z,98052.91
2023-04-02T14:31:15.576Z,98051.72
2023-04-02T14:34:07.300Z,98067.31
2023-04-02T14:36:46.188Z,98067.50
2023-04-02T14:39:44.654Z,98066.00
2023-04-02T14:42:17.453Z,98068.66
2023-04-02T14:44:55.613Z,98081.78
2023-04-02T14:47:31.272Z,98085.19
2023-04-02T14:50:09.717Z,98099.00
2023-04-02T14:52:42.562Z,98096.00
2023-04-02T14:55:36.136Z,98096.41
2023-04-02T14:58:08.111Z,98098.22
2023-04-02T15:00:43.460Z,98110.38
2023-04-02T15:03:14.403Z,98106.56
2023-04-02T15:05:46.597Z,98111.66
2023-04-02T15:08:35.323Z,98105.81
2023-04-02T15:11:08.709Z,98114.47
2023-04-02T15:13:42.372Z,98123.22
2023-04-02T15:16:19.386Z,98128.25
2023-04-02T15:18:46.701Z,98137.88
2023-04-02T15:21:19.705Z,98142.25
2023-04-02T15:24:10.469Z,98143.03
2023-04-02T15:26:58.450Z,98145.00
2023-04-02T15:29:51.419Z,98149.63
2023-04-02T15:32:30.541Z,98148.81
2023-04-02T15:35:37.396Z,98148.75
2023-04-02T15:38:15.931Z,98156.06
2023-04-02T15:41:04.430Z,98154.41
2023-04-02T15:43:39.800Z,98160.38
2023-04-02T15:46:19.117Z,98167.34
2023-04-02T15:49:03.928Z,98175.50
2023-04-02T15:51:55.016Z,98168.00
2023-04-02T15:54:36.778Z,98179.25
2023-04-02T15:57:30.238Z,98178.41
2023-04-02T16:00:11.487Z,98181.91
2023-04-02T16:02:58.505Z,98190.72
2023-04-02T16:05:40.488Z,98183.84
2023-04-02T16:08:09.216Z,98197.78
2023-04-02T16:10:42.605Z,98203.09
2023-04-02T16:13:37.864Z,98214.47
2023-04-02T16:16:13.613Z,98201.66
2023-04-02T16:19:01.439Z,98222.47
2023-04-02T16:21:51.384Z,98217.38
2023-04-02T16:24:18.110Z,98222.03
2023-04-02T16:27:00.020Z,98230.72
2023-04-02T16:30:04.356Z,98237.00
2023-04-02T16:32:55.669Z,98236.31
2023-04-02T16:35:54.454Z,98221.84
2023-04-02T16:38:39.767Z,98251.91
2023-04-02T16:41:11.984Z,98258.16
2023-04-02T16:44:00.781Z,98258.38
2023-04-02T16:47:04.378Z,98270.31
2023-04-02T16:50:02.015Z,98273.56
2023-04-02T16:53:00.791Z,98277.00
2023-04-02T16:55:35.347Z,98273.72
2023-04-02T16:58:26.386Z,98275.47
2023-04-02T17:01:05.470Z,98285.91
2023-04-02T17:03:50.973Z,98284.28
2023-04-02T17:07:02.922Z,98287.88
2023-04-02T17:09:49.302Z,98291.63
2023-04-02T17:12:21.531Z,98297.53
2023-04-02T17:14:57.567Z,98289.66
2023-04-02T17:17:24.308Z,98301.88
2023-04-02T17:19:56.054Z,98301.91
2023-04-02T17:22:23.501Z,98301.09
2023-04-02T17:25:03.167Z,98317.44
2023-04-02T17:27:36.830Z,98311.56
2023-04-02T17:30:13.291Z,98314.19
2023-04-02T17:32:39.866Z,98322.66
2023-04-02T17:35:18.502Z,98320.09
2023-04-02T17:38:21.290Z,98324.41
2023-04-02T17:41:00.674Z,98337.38
2023-04-02T17:43:56.264Z,98340.06
2023-04-02T17:46:29.881Z,98345.19
2023-04-02T17:49:07.491Z,98352.16
2023-04-02T17:52:04.021Z,98353.78
2023-04-02T17:54:44.884Z,98359.09
2023-04-02T17:57:30.287Z,98361.56
2023-04-02T18:00:06.317Z,98368.44
2023-04-02T18:03:04.013Z,98373.63
2023-04-02T18:05:59.795Z,98372.75
2023-04-02T18:08:39.971Z,98376.03
2023-04-02T18:11:25.214Z,98377.69
2023-04-02T18:14:14.973Z,98382.81
2023-04-02T18:17:26.182Z,98388.06
2023-04-02T18:19:52.761Z,98398.50
2023-04-02T18:22:43.953Z,98391.53
2023-04-02T18:25:34.713Z,98396.75
2023-04-02T18:28:32.422Z,98404.47
2023-04-02T18:31:13.254Z,98408.75
2023-04-02T18:33:49.644Z,98413.88
2023-04-02T18:36:26.565Z,98412.25
2023-04-02T18:39:11.035Z,98419.91
2023-04-02T18:41:43.980Z,98408.81
2023-04-02T18:44:42.408Z,98425.16
2023-04-02T18:47:37.832Z,98426.03
2023-04-02T18:50:28.220Z,98427.66
2023-04-02T18:52:57.783Z,98437.09
2023-04-02T18:55:28.911Z,98427.72
2023-04-02T18:58:12.958Z,98436.34
2023-04-02T19:00:41.869Z,98437.41
2023-04-02T19:03:14.981Z,98447.59
2023-04-02T19:05:49.590Z,98446.81
2023-04-02T19:08:28.211Z,98453.72
2023-04-02T19:11:01.717Z,98458.03
2023-04-02T19:13:28.465Z,98456.28
2023-04-02T19:16:13.866Z,98467.50
2023-04-02T19:19:21.422Z,98474.25
2023-04-02T19:22:00.947Z,98474.28
2023-04-02T19:24:54.310Z,98481.19
2023-04-02T19:27:34.276Z,98476.81
2023-04-02T19:30:19.086Z,98478.59
2023-04-02T19:32:54.899Z,98481.97
2023-04-02T19:35:21.955Z,98485.50
2023-04-02T19:38:27.177Z,98493.28
2023-04-02T19:41:07.140Z,98483.00
2023-04-02T19:43:33.855Z,98488.00
2023-04-02T19:46:02.519Z,98482.81
2023-04-02T19:48:50.767Z,98473.47
2023-04-02T19:51:17.442Z,98485.50
2023-04-02T19:53:44.448Z,98488.09
2023-04-02T19:56:11.058Z,98488.88
2023-04-02T19:58:37.639Z,98484.59
2023-04-02T20:01:04.320Z,98491.44
2023-04-02T20:03:31.507Z,98486.34
2023-04-02T20:06:00.863Z,98488.94
2023-04-02T20:08:28.401Z,98496.59
2023-04-02T20:10:56.146Z,98495.78
2023-04-02T20:13:22.783Z,98496.69
2023-04-02T20:15:51.406Z,98503.59
2023-04-02T20:18:18.709Z,98499.28
2023-04-02T20:20:48.253Z,98500.16
2023-04-02T20:23:16.642Z,98499.19
2023-04-02T20:25:47.847Z,98506.06
2023-04-02T20:28:14.641Z,98513.81
2023-04-02T20:30:41.330Z,98519.06
2023-04-02T20:33:08.205Z,98516.38
2023-04-02T20:35:35.424Z,98520.72
2023-04-02T20:38:06.532Z,98520.66
2023-04-02T20:40:36.046Z,98531.78
2023-04-02T20:43:05.439Z,98536.09
2023-04-02T20:45:32.343Z,98528.41
2023-04-02T20:47:59.023Z,98528.41
2023-04-02T20:50:25.762Z,98526.72
2023-04-02T20:52:52.545Z,98530.94
2023-04-02T20:55:19.298Z,98529.22
2023-04-02T20:57:46.511Z,98537.06
2023-04-02T21:00:13.736Z,98543.09
2023-04-02T21:02:40.500Z,98537.94
2023-04-02T21:05:07.662Z,98530.28
2023-04-02T21:07:34.683Z,98536.25
2023-04-02T21:10:01.822Z,98537.91
2023-04-02T21:12:28.529Z,98531.09
2023-04-02T21:15:01.069Z,98534.53
2023-04-02T21:17:28.891Z,98542.13
2023-04-02T21:19:56.857Z,98538.69
2023-04-02T21:22:23.985Z,98539.63
2023-04-02T21:24:50.815Z,98537.06
2023-04-02T21:27:19.718Z,98533.59
2023-04-02T21:29:46.299Z,98534.50
2023-04-02T21:32:21.325Z,98537.84
2023-04-02T21:34:48.587Z,98537.81
2023-04-02T21:37:15.591Z,98543.78
2023-04-02T21:39:42.466Z,98537.75
2023-04-02T21:42:11.182Z,98541.19
2023-04-02T21:44:37.864Z,98536.84
2023-04-02T21:47:04.529Z,98535.94
2023-04-02T21:49:31.210Z,98535.91
2023-04-02T21:51:57.826Z,98538.53
2023-04-02T21:54:24.420Z,98541.97
2023-04-02T21:56:51.497Z,98533.41
2023-04-02T21:59:18.370Z,98541.09
2023-04-02T22:01:50.523Z,98536.00
2023-04-02T22:04:27.138Z,98536.91
2023-04-02T22:06:53.888Z,98534.38
2023-04-02T22:09:23.499Z,98539.53
2023-04-02T22:11:54.710Z,98549.78
2023-04-02T22:14:21.997Z,98541.22
2023-04-02T22:16:48.732Z,98547.19
2023-04-02T22:19:16.680Z,98547.31
2023-04-02T22:21:44.259Z,98548.13
2023-04-02T22:24:16.134Z,98554.03
2023-04-02T22:26:43.303Z,98542.16
2023-04-02T22:29:10.409Z,98543.03
2023-04-02T22:31:37.199Z,98543.84
2023-04-02T22:34:05.696Z,98544.66
2023-04-02T22:36:32.898Z,98544.69
2023-04-02T22:39:00.621Z,98536.22
2023-04-02T22:41:32.116Z,98537.00
2023-04-02T22:44:00.670Z,98549.00
2023-04-02T22:46:28.627Z,98543.91
2023-04-02T22:48:55.900Z,98549.94
2023-04-02T22:51:23.629Z,98542.25
2023-04-02T22:53:52.974Z,98547.38
2023-04-02T22:56:22.714Z,98544.75
2023-04-02T22:58:49.436Z,98541.38
2023-04-02T23:01:21.530Z,98548.28
2023-04-02T23:03:48.316Z,98551.63
2023-04-02T23:06:18.040Z,98541.44
2023-04-02T23:08:45.294Z,98545.69
2023-04-02T23:11:17.806Z,98536.28
2023-04-02T23:13:46.818Z,98542.28
2023-04-02T23:16:16.952Z,98544.09
2023-04-02T23:18:47.310Z,98537.28
2023-04-02T23:21:17.871Z,98540.75
2023-04-02T23:23:45.468Z,98537.31
2023-04-02T23:26:16.582Z,98545.78
2023-04-02T23:28:43.883Z,98537.25
2023-04-02T23:31:19.530Z,98537.31
2023-04-02T23:33:46.323Z,98541.59
2023-04-02T23:36:28.098Z,98544.13
2023-04-02T23:38:57.183Z,98542.38
2023-04-02T23:41:26.952Z,98533.94
2023-04-02T23:43:55.460Z,98534.81
2023-04-02T23:46:23.118Z,98536.47
2023-04-02T23:48:50.882Z,98535.59
2023-04-02T23:51:18.113Z,98529.63
2023-04-02T23:53:44.854Z,98527.09
2023-04-02T23:56:14.236Z,98535.66
2023-04-02T23:58:41.058Z,98526.22
